Time;durP1;ratioP1;P1;durP2;ratioP2;P2;SDS_P1;SDS_P2;PMS_P1;PMS_P2;Temp;Humidity;BMP_temperature;BMP_pressure;BME280_temperature;BME280_humidity;BME280_pressure;Samples;Min_cycle;Max_cycle;Signal;HPM_P1;HPM_P2
2021/06/03 00:02:00;;;;;;;6.95;3.02;;;;;;;11.01;70.85;99696.13;1784991;80;20902;-73
2021/06/03 00:04:26;;;;;;;13.32;2.90;;;;;;;11.02;70.98;99696.37;1784709;79;21421;-72
2021/06/03 00:06:54;;;;;;;4.83;2.60;;;;;;;11.02;70.94;99699.12;1784554;80;20902;-72
2021/06/03 00:09:20;;;;;;;4.58;2.50;;;;;;;11.02;71.07;99696.37;1784688;80;21104;-72
2021/06/03 00:11:48;;;;;;;8.45;2.77;;;;;;;11.02;71.03;99699.67;1784715;80;21441;-72
2021/06/03 00:14:17;;;;;;;5.47;3.10;;;;;;;11.01;70.99;99693.38;1784597;79;20874;-72
2021/06/03 00:16:44;;;;;;;6.83;2.72;;;;;;;11.03;71.08;99704.05;1784545;80;20886;-71
2021/06/03 00:19:11;;;;;;;24.80;3.27;;;;;;;11.02;71.08;99698.30;1784709;80;20916;-71
2021/06/03 00:21:41;;;;;;;13.88;2.87;;;;;;;11.02;71.25;99696.37;1784702;79;21516;-71
2021/06/03 00:24:07;;;;;;;5.60;2.72;;;;;;;10.99;71.37;99697.00;1784528;80;20874;-70
2021/06/03 00:26:35;;;;;;;12.28;2.60;;;;;;;10.97;71.31;99695.72;1784637;80;20913;-71
2021/06/03 00:29:03;;;;;;;9.15;3.08;;;;;;;10.95;71.36;99691.11;1784600;80;21018;-71
2021/06/03 00:31:32;;;;;;;13.03;3.22;;;;;;;10.93;71.42;99691.98;1784607;80;20878;-70
2021/06/03 00:33:59;;;;;;;3.75;2.15;;;;;;;10.90;71.67;99694.80;1784601;80;21894;-70
2021/06/03 00:36:25;;;;;;;7.95;3.10;;;;;;;10.88;71.93;99698.41;1784534;80;20858;-72
2021/06/03 00:38:52;;;;;;;8.10;2.83;;;;;;;10.82;72.04;99699.67;1784641;80;20906;-73
2021/06/03 00:41:19;;;;;;;12.15;3.10;;;;;;;10.79;72.17;99703.04;1784563;80;21508;-74
2021/06/03 00:43:47;;;;;;;4.20;3.17;;;;;;;10.79;72.19;99703.85;1784575;80;20838;-74
2021/06/03 00:46:15;;;;;;;6.83;2.90;;;;;;;10.80;72.31;99708.22;1784617;80;21162;-73
2021/06/03 00:48:42;;;;;;;11.35;2.87;;;;;;;10.79;72.25;99698.36;1784673;80;20923;-73
2021/06/03 00:51:09;;;;;;;4.72;2.95;;;;;;;10.78;72.28;99703.60;1784584;80;20897;-73
2021/06/03 00:53:38;;;;;;;8.38;2.90;;;;;;;10.76;72.41;99698.98;1784619;80;21406;-73
2021/06/03 00:56:05;;;;;;;7.37;3.33;;;;;;;10.72;72.62;99697.17;1785999;80;20862;-73
2021/06/03 00:58:34;;;;;;;13.70;3.22;;;;;;;10.68;72.79;99705.23;1784831;80;21119;-73
2021/06/03 01:01:02;;;;;;;9.55;3.33;;;;;;;10.66;72.86;99706.66;1784532;80;20949;-72
2021/06/03 01:03:29;;;;;;;7.80;3.90;;;;;;;10.62;73.02;99700.98;1784609;80;21438;-72
2021/06/03 01:06:03;;;;;;;9.63;2.90;;;;;;;10.61;73.14;99700.73;1784576;80;20910;-73
2021/06/03 01:08:44;;;;;;;7.78;2.62;;;;;;;10.58;73.40;99701.36;1781468;80;20912;-73
2021/06/03 01:11:18;;;;;;;4.78;2.60;;;;;;;10.54;73.44;99703.91;1780882;80;20966;-73
2021/06/03 01:14:06;;;;;;;4.35;3.08;;;;;;;10.52;73.54;99701.23;1780366;80;20914;-72
2021/06/03 01:16:33;;;;;;;11.95;3.25;;;;;;;10.48;73.68;99701.59;1781060;80;21025;-73
2021/06/03 01:19:04;;;;;;;9.43;2.77;;;;;;;10.44;73.76;99701.97;1780699;80;20956;-73
2021/06/03 01:21:43;;;;;;;5.90;3.10;;;;;;;10.40;73.96;99703.16;1781035;80;20996;-73
2021/06/03 01:24:33;;;;;;;7.12;2.60;;;;;;;10.36;74.27;99700.81;1780864;79;21809;-72
2021/06/03 01:27:09;;;;;;;7.22;2.83;;;;;;;10.32;74.48;99701.18;1780911;80;20926;-73
2021/06/03 01:30:10;;;;;;;7.83;3.17;;;;;;;10.30;74.72;99702.05;1780871;80;20918;-73
2021/06/03 01:32:43;;;;;;;9.35;2.70;;;;;;;10.27;74.81;99698.55;1781210;80;21497;-73
2021/06/03 01:35:16;;;;;;;4.83;3.02;;;;;;;10.27;74.98;99698.55;1780976;80;20973;-73
2021/06/03 01:37:45;;;;;;;7.22;3.25;;;;;;;10.27;75.16;99702.67;1781279;80;21778;-73
2021/06/03 01:40:12;;;;;;;6.67;3.37;;;;;;;10.25;75.29;99705.72;1778073;80;20946;-72
2021/06/03 01:42:38;;;;;;;4.42;2.90;;;;;;;10.25;75.43;99704.34;1753078;80;20843;-73
2021/06/03 01:45:08;;;;;;;13.30;3.35;;;;;;;10.25;75.40;99698.05;1780798;80;20914;-73
2021/06/03 01:47:35;;;;;;;4.65;3.12;;;;;;;10.25;75.46;99704.34;1781169;80;21418;-72
2021/06/03 01:50:05;;;;;;;15.90;3.15;;;;;;;10.23;75.55;99702.47;1780878;80;20895;-72
2021/06/03 01:52:32;;;;;;;5.95;3.30;;;;;;;10.24;75.70;99702.72;1781051;80;20962;-72
2021/06/03 01:55:00;;;;;;;5.83;3.25;;;;;;;10.24;75.84;99706.03;1780871;80;21005;-73
2021/06/03 01:57:27;;;;;;;6.15;3.33;;;;;;;10.24;75.94;99710.95;1752856;80;20926;-71
2021/06/03 01:59:55;;;;;;;6.83;2.98;;;;;;;10.25;75.94;99704.91;1778283;80;20895;-71
2021/06/03 02:02:21;;;;;;;6.42;3.15;;;;;;;10.27;75.84;99701.30;1780872;80;21089;-71
2021/06/03 02:04:48;;;;;;;5.70;2.80;;;;;;;10.28;75.76;99707.03;1780753;79;20907;-71
2021/06/03 02:07:15;;;;;;;10.13;2.77;;;;;;;10.27;75.90;99708.72;1780727;79;20835;-71
2021/06/03 02:09:42;;;;;;;6.55;3.40;;;;;;;10.25;75.99;99711.77;1780763;80;20867;-70
2021/06/03 02:12:12;;;;;;;4.00;2.95;;;;;;;10.23;75.95;99713.45;1780846;79;20970;-70
2021/06/03 02:14:40;;;;;;;10.90;3.45;;;;;;;10.22;76.04;99713.76;1780825;80;21099;-70
2021/06/03 02:17:20;;;;;;;9.38;3.20;;;;;;;10.21;76.09;99714.88;1780767;79;20974;-71
2021/06/03 02:19:57;;;;;;;7.35;3.47;;;;;;;10.22;76.26;99714.57;1780888;80;21458;-70
2021/06/03 02:22:24;;;;;;;6.78;3.08;;;;;;;10.23;76.30;99706.59;1778113;80;20894;-70
2021/06/03 02:24:52;;;;;;;6.62;2.75;;;;;;;10.25;76.19;99717.25;1781139;80;20930;-70
2021/06/03 02:27:20;;;;;;;7.30;2.95;;;;;;;10.29;76.11;99709.22;1780826;80;21924;-71
2021/06/03 02:29:47;;;;;;;9.68;3.65;;;;;;;10.31;76.01;99707.79;1780788;80;20823;-71
2021/06/03 02:32:16;;;;;;;12.65;3.40;;;;;;;10.32;76.05;99710.78;1780760;80;20863;-71
2021/06/03 02:34:47;;;;;;;15.05;3.70;;;;;;;10.33;76.05;99716.52;1780803;80;20847;-71
2021/06/03 02:37:15;;;;;;;8.03;3.47;;;;;;;10.34;76.08;99718.14;1780899;80;20954;-71
2021/06/03 02:39:46;;;;;;;9.93;2.85;;;;;;;10.36;76.06;99717.27;1781085;80;21115;-69
2021/06/03 02:42:12;;;;;;;5.83;3.22;;;;;;;10.36;76.10;99719.20;1780741;80;20930;-69
2021/06/03 02:44:40;;;;;;;7.17;3.08;;;;;;;10.37;76.09;99720.27;1777977;80;21505;-70
2021/06/03 02:47:08;;;;;;;7.60;3.30;;;;;;;10.39;76.11;99721.33;1780860;80;20986;-71
2021/06/03 02:49:35;;;;;;;6.95;3.25;;;;;;;10.38;76.13;99719.71;1781169;80;21434;-71
2021/06/03 02:52:06;;;;;;;6.78;3.22;;;;;;;10.39;76.01;99729.56;1799254;77;21742;-71
2021/06/03 02:54:36;;;;;;;8.30;3.45;;;;;;;10.39;76.00;99725.45;1780694;79;21410;-74
2021/06/03 02:57:04;;;;;;;6.67;2.98;;;;;;;10.39;75.91;99729.00;1781109;80;20922;-72
2021/06/03 02:59:31;;;;;;;6.00;2.95;;;;;;;10.38;75.96;99722.45;1787420;79;20987;-71
2021/06/03 03:01:59;;;;;;;6.05;3.33;;;;;;;10.35;76.01;99732.12;1788533;80;20876;-70
2021/06/03 03:04:27;;;;;;;9.68;3.30;;;;;;;10.37;76.22;99727.69;1757676;81;21164;-69
2021/06/03 03:06:54;;;;;;;8.23;3.42;;;;;;;10.40;76.17;99726.48;1788808;80;21388;-70
2021/06/03 03:09:21;;;;;;;10.00;3.20;;;;;;;10.47;76.15;99724.68;1776175;80;20909;-70
2021/06/03 03:11:49;;;;;;;15.03;3.50;;;;;;;10.53;76.24;99725.63;1772232;81;21626;-70
2021/06/03 03:14:17;;;;;;;6.28;3.42;;;;;;;10.60;76.04;99726.56;1772393;81;20916;-69
2021/06/03 03:16:45;;;;;;;11.12;3.95;;;;;;;10.67;76.04;99724.76;1772403;80;20897;-70
2021/06/03 03:19:12;;;;;;;8.43;2.98;;;;;;;10.75;76.01;99730.31;1748401;81;21455;-71
2021/06/03 03:21:39;;;;;;;6.08;2.92;;;;;;;10.82;75.87;99731.25;1772307;81;20877;-71
2021/06/03 03:24:06;;;;;;;12.50;3.20;;;;;;;10.88;75.62;99727.25;1772525;81;21444;-71
2021/06/03 03:26:33;;;;;;;10.23;3.08;;;;;;;10.93;75.36;99731.24;1772287;81;21531;-71
2021/06/03 03:29:00;;;;;;;6.40;3.20;;;;;;;10.98;75.12;99726.16;1772347;80;21939;-71
2021/06/03 03:31:27;;;;;;;7.10;3.22;;;;;;;11.01;74.96;99727.71;1772117;81;20912;-71
2021/06/03 03:34:02;;;;;;;11.28;3.00;;;;;;;11.04;74.84;99735.89;1772613;81;20877;-71
2021/06/03 03:36:24;;;;;;;10.53;2.95;;;;;;;11.08;74.71;99735.51;1769184;80;20996;-71
2021/06/03 03:38:51;;;;;;;4.80;3.08;;;;;;;11.10;74.90;99734.07;1767555;80;21000;-71
2021/06/03 03:41:18;;;;;;;7.37;3.15;;;;;;;11.14;74.77;99739.19;1767666;81;21767;-70
2021/06/03 03:43:44;;;;;;;6.95;3.17;;;;;;;11.18;74.63;99732.50;1767532;81;20846;-71
2021/06/03 03:46:11;;;;;;;13.68;3.30;;;;;;;11.24;74.44;99733.42;1767342;81;20900;-71
2021/06/03 03:48:41;;;;;;;7.33;2.87;;;;;;;11.29;74.27;99733.05;1722152;83;20912;-71
2021/06/03 03:51:12;;;;;;;12.90;3.05;;;;;;;11.33;74.39;99725.78;1767675;80;21448;-70
2021/06/03 03:53:40;;;;;;;6.55;3.35;;;;;;;11.38;74.05;99739.39;1722055;83;21176;-68
2021/06/03 03:56:08;;;;;;;9.20;3.02;;;;;;;11.42;74.19;99734.32;1767880;80;20937;-69
2021/06/03 03:58:39;;;;;;;12.15;2.85;;;;;;;11.49;74.27;99742.11;1722492;83;20988;-70
2021/06/03 04:01:05;;;;;;;8.03;3.60;;;;;;;11.55;74.15;99747.72;1767941;81;20893;-70
2021/06/03 04:03:34;;;;;;;9.20;3.20;;;;;;;11.62;73.74;99738.42;1721053;83;21184;-70
2021/06/03 04:06:04;;;;;;;9.30;2.80;;;;;;;11.68;73.33;99741.27;1766987;81;21905;-71
2021/06/03 04:08:31;;;;;;;7.75;3.40;;;;;;;11.76;72.93;99746.56;1729458;81;21474;-70
2021/06/03 04:10:59;;;;;;;9.13;3.22;;;;;;;11.83;72.98;99742.81;1738393;81;20873;-71
2021/06/03 04:13:29;;;;;;;5.60;3.15;;;;;;;11.90;73.08;99752.22;1752230;81;20910;-71
2021/06/03 04:15:59;;;;;;;6.58;2.67;;;;;;;11.99;72.57;99748.13;1763365;81;20972;-71
2021/06/03 04:18:26;;;;;;;7.87;3.00;;;;;;;12.08;72.42;99759.14;1752815;81;21099;-70
2021/06/03 04:20:55;;;;;;;4.45;3.05;;;;;;;12.17;72.09;99749.75;1764904;81;20881;-70
2021/06/03 04:23:23;;;;;;;6.72;3.17;;;;;;;12.27;71.89;99750.57;1753318;81;20907;-71
2021/06/03 04:25:50;;;;;;;9.15;3.00;;;;;;;12.35;71.21;99747.83;1764213;80;21038;-71
2021/06/03 04:28:16;;;;;;;8.43;2.70;;;;;;;12.44;71.36;99755.53;1794241;79;20880;-70
2021/06/03 04:30:45;;;;;;;6.92;2.80;;;;;;;12.53;70.90;99756.92;1751457;82;21922;-70
2021/06/03 04:33:12;;;;;;;5.47;3.12;;;;;;;12.61;70.47;99759.44;1780950;80;21511;-72
2021/06/03 04:35:40;;;;;;;9.53;3.33;;;;;;;12.69;70.22;99755.87;1766828;80;20951;-71
2021/06/03 04:38:06;;;;;;;8.18;3.25;;;;;;;12.75;69.81;99753.16;1769366;80;21000;-70
2021/06/03 04:40:32;;;;;;;8.80;2.80;;;;;;;12.81;69.97;99749.11;1765680;80;20911;-70
2021/06/03 04:42:59;;;;;;;13.98;3.22;;;;;;;12.88;69.58;99745.30;1789427;80;21510;-71
2021/06/03 04:45:26;;;;;;;10.05;2.75;;;;;;;12.97;70.07;99749.42;1768732;80;20941;-72
2021/06/03 04:47:54;;;;;;;7.25;2.35;;;;;;;13.06;69.82;99749.65;1769515;80;21098;-70
2021/06/03 04:50:21;;;;;;;9.18;3.22;;;;;;;13.15;68.89;99752.39;1771288;80;20927;-74
2021/06/03 04:52:48;;;;;;;6.87;2.60;;;;;;;13.22;68.65;99755.48;1787735;80;20975;-72
2021/06/03 04:55:20;;;;;;;6.92;3.35;;;;;;;13.29;68.17;99756.33;1783793;80;21568;-73
2021/06/03 04:57:46;;;;;;;8.33;3.12;;;;;;;13.35;68.32;99750.88;1766158;80;20979;-73
2021/06/03 05:00:18;;;;;;;9.30;3.05;;;;;;;13.42;67.56;99753.94;1786714;80;20942;-73
2021/06/03 05:02:45;;;;;;;9.28;2.60;;;;;;;13.50;67.96;99748.97;1747562;80;21103;-72
2021/06/03 05:05:13;;;;;;;7.12;2.60;;;;;;;13.58;66.94;99756.97;1793505;80;21524;-72
2021/06/03 05:07:40;;;;;;;8.83;2.90;;;;;;;13.66;66.68;99756.94;1776272;80;21381;-73
2021/06/03 05:10:08;;;;;;;6.53;2.85;;;;;;;13.75;65.88;99753.58;1770026;80;20940;-73
2021/06/03 05:12:34;;;;;;;6.78;2.50;;;;;;;13.85;66.02;99762.86;1767059;80;21040;-71
2021/06/03 05:15:01;;;;;;;8.25;2.77;;;;;;;13.94;64.96;99758.64;1768687;79;21572;-73
2021/06/03 05:17:28;;;;;;;8.18;3.10;;;;;;;14.04;65.99;99754.12;1777963;80;21058;-72
2021/06/03 05:19:56;;;;;;;9.15;2.95;;;;;;;14.16;65.56;99757.55;1763914;81;21002;-72
2021/06/03 05:22:24;;;;;;;5.17;2.55;;;;;;;14.27;64.52;99756.59;1763399;81;20899;-71
2021/06/03 05:24:50;;;;;;;8.00;2.70;;;;;;;14.37;64.37;99761.16;1763690;81;21022;-71
2021/06/03 05:27:17;;;;;;;8.80;2.95;;;;;;;14.46;64.52;99761.90;1763927;81;21589;-71
2021/06/03 05:29:43;;;;;;;7.50;2.98;;;;;;;14.58;63.61;99757.59;1763979;81;21097;-71
2021/06/03 05:32:10;;;;;;;11.53;2.95;;;;;;;14.69;63.02;99761.57;1763023;81;21110;-72
2021/06/03 05:34:36;;;;;;;10.48;2.50;;;;;;;14.80;63.16;99759.44;1763745;81;21012;-77
2021/06/03 05:37:04;;;;;;;15.28;3.25;;;;;;;14.96;63.58;99765.73;1764668;81;21497;-74
2021/06/03 05:39:34;;;;;;;6.70;2.90;;;;;;;15.09;62.60;99757.69;1764665;81;20923;-75
2021/06/03 05:42:01;;;;;;;7.80;2.72;;;;;;;15.21;61.46;99766.02;1764794;81;20981;-72
2021/06/03 05:44:29;;;;;;;5.08;2.75;;;;;;;15.31;62.03;99770.31;1764693;81;21165;-75
2021/06/03 05:46:55;;;;;;;7.83;2.98;;;;;;;15.42;61.51;99766.77;1764562;81;21437;-75
2021/06/03 05:49:26;;;;;;;11.43;2.75;;;;;;;15.55;60.27;99768.98;1764824;81;20919;-76
2021/06/03 05:51:52;;;;;;;5.30;2.55;;;;;;;15.65;61.14;99767.16;1764680;81;20872;-76
2021/06/03 05:54:18;;;;;;;8.83;2.80;;;;;;;15.78;59.59;99770.17;1764673;81;21478;-73
2021/06/03 05:56:45;;;;;;;4.08;2.22;;;;;;;15.90;59.43;99769.95;1775533;79;21769;-78
2021/06/03 05:59:11;;;;;;;8.95;2.37;;;;;;;15.96;57.10;99762.45;1786451;80;20891;-74
2021/06/03 06:01:39;;;;;;;9.18;2.77;;;;;;;16.00;56.64;99769.50;1768040;80;20927;-76
2021/06/03 06:06:32;;;;;;;10.45;2.90;;;;;;;16.11;58.48;99770.65;1765071;81;21478;-77
2021/06/03 06:09:01;;;;;;;7.15;2.55;;;;;;;16.21;57.72;99771.53;1765133;81;21106;-77
2021/06/03 06:11:33;;;;;;;10.82;2.87;;;;;;;16.32;57.83;99771.30;1778784;79;20915;-77
2021/06/03 06:14:01;;;;;;;5.15;2.60;;;;;;;16.42;57.55;99768.62;1773242;79;21038;-76
2021/06/03 06:16:29;;;;;;;12.35;2.15;;;;;;;16.54;57.54;99776.91;1767733;81;20887;-77
2021/06/03 06:18:57;;;;;;;12.28;2.45;;;;;;;16.63;56.82;99769.27;1767683;81;20922;-76
2021/06/03 06:21:26;;;;;;;5.60;2.37;;;;;;;16.72;54.90;99771.94;1767688;81;20883;-76
2021/06/03 06:23:53;;;;;;;15.72;2.30;;;;;;;16.78;53.95;99773.27;1767614;81;20887;-76
2021/06/03 06:26:20;;;;;;;6.75;2.95;;;;;;;16.83;54.88;99774.41;1767695;81;20930;-80
2021/06/03 06:28:47;;;;;;;5.58;2.50;;;;;;;16.90;55.33;99781.55;1774746;80;21435;-78
2021/06/03 06:31:14;;;;;;;5.10;2.00;;;;;;;17.02;55.53;99767.64;1789185;79;20939;-77
2021/06/03 06:33:41;;;;;;;10.55;2.60;;;;;;;17.13;54.31;99771.52;1786426;79;21115;-78
2021/06/03 06:36:08;;;;;;;10.48;2.65;;;;;;;17.19;53.62;99763.75;1789584;79;20998;-77
2021/06/03 06:38:35;;;;;;;6.67;2.12;;;;;;;17.26;55.08;99770.08;1793808;79;21475;-78
2021/06/03 06:41:03;;;;;;;5.08;2.20;;;;;;;17.34;54.01;99765.72;1786123;79;21010;-77
2021/06/03 06:43:29;;;;;;;5.42;2.40;;;;;;;17.38;53.19;99771.38;1791612;79;21442;-78
2021/06/03 06:45:56;;;;;;;6.28;2.37;;;;;;;17.41;51.69;99758.98;1788447;79;21087;-78
2021/06/03 06:48:23;;;;;;;10.45;3.35;;;;;;;17.45;52.73;99775.14;1787748;79;20963;-77
2021/06/03 06:50:50;;;;;;;11.57;2.60;;;;;;;17.55;53.10;99766.88;1785087;79;20891;-76
2021/06/03 06:53:16;;;;;;;4.87;2.30;;;;;;;17.67;53.90;99778.52;1785446;79;20971;-77
2021/06/03 06:55:43;;;;;;;6.35;2.45;;;;;;;17.77;52.73;99771.84;1789598;79;20987;-77
2021/06/03 06:58:09;;;;;;;8.18;2.70;;;;;;;17.88;52.81;99776.28;1789802;79;21783;-74
2021/06/03 07:00:37;;;;;;;7.12;2.37;;;;;;;18.00;53.72;99776.16;1788336;79;20932;-75
2021/06/03 07:03:06;;;;;;;7.65;2.42;;;;;;;18.18;52.97;99778.56;1791824;79;21007;-76
2021/06/03 07:05:33;;;;;;;9.90;2.35;;;;;;;18.34;53.15;99773.20;1788166;79;20859;-77
2021/06/03 07:08:00;;;;;;;6.72;2.10;;;;;;;18.48;50.65;99763.77;1787279;79;20998;-75
2021/06/03 07:10:27;;;;;;;4.90;2.10;;;;;;;18.62;49.95;99769.45;1786685;79;21146;-76
2021/06/03 07:12:55;;;;;;;6.17;1.70;;;;;;;18.75;49.34;99766.17;1770018;80;21553;-75
2021/06/03 07:15:21;;;;;;;6.53;2.02;;;;;;;18.82;49.03;99769.69;1768670;80;20952;-75
2021/06/03 07:17:49;;;;;;;4.62;2.20;;;;;;;18.90;48.12;99758.13;1768012;80;20988;-74
2021/06/03 07:20:19;;;;;;;6.87;1.85;;;;;;;18.97;45.95;99765.23;1784718;80;21126;-75
2021/06/03 07:22:47;;;;;;;2.77;1.82;;;;;;;19.01;46.28;99763.33;1743354;80;21068;-77
2021/06/03 07:25:15;;;;;;;6.87;1.77;;;;;;;19.07;45.58;99752.89;1767761;80;21097;-75
2021/06/03 07:27:42;;;;;;;4.62;2.20;;;;;;;19.16;46.52;99752.66;1787571;80;20920;-74
2021/06/03 07:30:11;;;;;;;9.85;1.90;;;;;;;19.29;46.69;99758.88;1790773;80;20944;-75
2021/06/03 07:32:39;;;;;;;5.97;1.90;;;;;;;19.41;44.74;99756.73;1775937;80;20907;-74
2021/06/03 07:35:09;;;;;;;6.37;2.08;;;;;;;19.53;44.34;99752.99;1806716;79;21386;-74
2021/06/03 07:37:37;;;;;;;13.38;1.72;;;;;;;19.59;41.12;99765.44;1812768;79;20898;-75
2021/06/03 07:40:07;;;;;;;3.30;1.70;;;;;;;19.57;41.35;99762.22;1808402;79;21470;-75
2021/06/03 07:42:33;;;;;;;2.52;1.67;;;;;;;19.58;42.20;99763.83;1812713;79;20915;-75
2021/06/03 07:45:01;;;;;;;5.47;1.50;;;;;;;19.60;41.93;99765.66;1812782;77;20855;-75
2021/06/03 07:47:28;;;;;;;14.38;1.92;;;;;;;19.64;41.72;99770.66;1797500;79;21598;-76
2021/06/03 07:49:55;;;;;;;4.58;1.45;;;;;;;19.75;40.92;99765.28;1751439;82;20919;-75
2021/06/03 07:52:22;;;;;;;5.30;1.92;;;;;;;19.87;40.70;99767.08;1780744;80;21472;-76
2021/06/03 07:54:48;;;;;;;4.55;1.27;;;;;;;19.95;41.09;99774.38;1780789;80;20916;-75
2021/06/03 07:57:14;;;;;;;4.60;1.65;;;;;;;19.99;39.26;99781.62;1780795;80;20921;-75
2021/06/03 07:59:42;;;;;;;4.72;2.05;;;;;;;20.01;38.13;99775.08;1780727;80;21948;-75
2021/06/03 08:02:09;;;;;;;7.05;1.80;;;;;;;20.04;39.24;99775.73;1780798;80;20901;-76
2021/06/03 08:04:36;;;;;;;5.75;1.50;;;;;;;20.09;37.20;99772.63;1780703;80;20917;-76
2021/06/03 08:07:03;;;;;;;4.78;1.40;;;;;;;20.16;38.78;99768.34;1780750;80;20877;-76
2021/06/03 08:09:30;;;;;;;3.70;1.42;;;;;;;20.28;37.61;99761.94;1780853;80;21572;-76
2021/06/03 08:11:58;;;;;;;2.12;1.50;;;;;;;20.40;38.76;99765.94;1782099;79;21743;-76
2021/06/03 08:14:25;;;;;;;5.53;1.75;;;;;;;20.59;39.41;99762.81;1803105;79;21432;-76
2021/06/03 08:16:52;;;;;;;8.98;1.65;;;;;;;20.79;36.91;99763.48;1788144;79;20959;-77
2021/06/03 08:19:20;;;;;;;4.62;1.67;;;;;;;20.91;37.62;99757.03;1780769;80;21002;-77
2021/06/03 08:21:48;;;;;;;8.20;1.90;;;;;;;21.18;38.83;99766.72;1780979;80;20915;-76
2021/06/03 08:24:14;;;;;;;5.75;1.37;;;;;;;21.45;37.21;99764.63;1780943;80;21758;-77
2021/06/03 08:26:41;;;;;;;5.97;1.70;;;;;;;21.72;37.35;99779.47;1780645;80;20876;-76
2021/06/03 08:29:09;;;;;;;5.95;1.65;;;;;;;21.64;34.93;99776.98;1780773;80;21380;-77
2021/06/03 08:31:37;;;;;;;4.47;1.42;;;;;;;21.49;36.82;99777.44;1736350;80;20928;-77
2021/06/03 08:34:04;;;;;;;4.05;1.60;;;;;;;21.56;36.51;99764.14;1781175;80;20927;-77
2021/06/03 08:36:30;;;;;;;7.10;1.62;;;;;;;21.79;35.85;99775.94;1781574;79;21943;-76
2021/06/03 08:38:57;;;;;;;5.50;2.22;;;;;;;21.75;35.85;99770.91;1809692;78;20915;-76
2021/06/03 08:41:25;;;;;;;18.62;2.15;;;;;;;21.53;36.19;99769.90;1777922;77;20990;-75
2021/06/03 08:43:52;;;;;;;12.55;2.52;;;;;;;21.40;36.21;99783.33;1763173;81;20962;-74
2021/06/03 08:46:18;;;;;;;2.42;1.52;;;;;;;21.22;35.88;99775.97;1807692;78;20872;-76
2021/06/03 08:48:46;;;;;;;5.05;1.45;;;;;;;20.91;36.84;99779.95;1779890;80;20915;-76
2021/06/03 08:51:16;;;;;;;8.10;1.77;;;;;;;20.57;37.79;99781.91;1779689;80;20923;-73
2021/06/03 08:53:43;;;;;;;2.95;1.57;;;;;;;20.37;37.84;99775.02;1793760;79;20978;-76
2021/06/03 08:56:15;;;;;;;2.00;1.50;;;;;;;20.60;39.16;99767.20;1781176;80;20892;-76
2021/06/03 08:58:50;;;;;;;1.82;1.30;;;;;;;21.08;38.70;99774.59;1781453;80;20963;-76
2021/06/03 09:01:17;;;;;;;3.00;1.47;;;;;;;21.42;36.83;99777.36;1785115;80;21144;-76
2021/06/03 09:03:44;;;;;;;4.65;1.47;;;;;;;21.45;36.43;99768.81;1786053;80;20911;-77
2021/06/03 09:06:13;;;;;;;5.45;1.67;;;;;;;21.28;36.19;99775.84;1786262;80;20998;-76
2021/06/03 09:08:40;;;;;;;4.17;1.45;;;;;;;21.03;36.99;99776.31;1786303;80;20923;-75
2021/06/03 09:11:10;;;;;;;2.25;1.70;;;;;;;20.96;38.22;99781.01;1786014;80;21415;-76
2021/06/03 09:13:41;;;;;;;6.62;2.00;;;;;;;20.95;37.96;99780.20;1786457;80;21429;-76
2021/06/03 09:16:17;;;;;;;4.12;2.00;;;;;;;20.90;37.37;99780.54;1786324;80;20880;-76
2021/06/03 09:18:53;;;;;;;3.27;1.85;;;;;;;20.71;37.00;99779.31;1786127;80;20927;-75
2021/06/03 09:21:25;;;;;;;6.10;1.80;;;;;;;20.74;38.78;99780.76;1786131;80;20924;-75
2021/06/03 09:23:59;;;;;;;2.30;1.72;;;;;;;21.18;38.25;99779.28;1786182;80;20979;-73
2021/06/03 09:26:28;;;;;;;3.02;1.92;;;;;;;21.61;37.75;99773.56;1775110;80;21114;-75
2021/06/03 09:28:58;;;;;;;3.50;2.25;;;;;;;21.97;37.31;99774.07;1764546;81;20919;-76
2021/06/03 09:31:29;;;;;;;6.70;1.87;;;;;;;21.95;35.97;99775.67;1764522;81;21608;-77
2021/06/03 09:34:08;;;;;;;3.25;1.52;;;;;;;21.65;36.49;99786.98;1764186;81;20860;-76
2021/06/03 09:36:41;;;;;;;3.45;1.50;;;;;;;21.24;35.54;99791.75;1782297;79;21018;-77
2021/06/03 09:39:32;;;;;;;4.28;1.42;;;;;;;20.87;36.58;99782.69;1762966;81;21140;-78
2021/06/03 09:42:14;;;;;;;2.87;1.50;;;;;;;20.67;37.29;99787.63;1763363;81;21015;-78
2021/06/03 09:44:50;;;;;;;5.53;1.87;;;;;;;20.61;38.18;99784.16;1765775;80;21467;-78
2021/06/03 09:47:21;;;;;;;6.67;1.65;;;;;;;20.61;37.85;99786.95;1794660;80;20915;-77
2021/06/03 09:49:56;;;;;;;4.05;1.62;;;;;;;20.55;37.19;99788.45;1795159;80;21470;-78
2021/06/03 09:52:33;;;;;;;3.87;1.90;;;;;;;20.46;37.10;99792.91;1796315;80;21109;-79
2021/06/03 09:55:03;;;;;;;3.90;1.90;;;;;;;20.37;37.89;99787.56;1795219;80;21438;-78
2021/06/03 09:57:37;;;;;;;2.45;1.22;;;;;;;20.31;38.23;99785.47;1796283;80;20997;-78
2021/06/03 10:00:20;;;;;;;8.08;1.72;;;;;;;20.24;37.71;99790.35;1795906;80;20915;-78
2021/06/03 10:02:46;;;;;;;;;;;;;;;20.17;38.07;99789.47;1798843;80;21487;-79
2021/06/03 10:05:16;;;;;;;6.45;1.55;;;;;;;20.12;38.56;99785.01;1795801;80;21137;-79
2021/06/03 10:08:00;;;;;;;5.87;1.60;;;;;;;20.34;39.22;99788.91;1796047;80;21497;-79
2021/06/03 10:10:30;;;;;;;3.47;1.70;;;;;;;20.80;39.09;99783.99;1793889;79;21045;-79
2021/06/03 10:13:00;;;;;;;5.00;1.85;;;;;;;21.68;38.91;99793.19;1789158;79;20901;-79
2021/06/03 10:15:33;;;;;;;4.22;1.50;;;;;;;22.08;35.08;99779.78;1788087;80;20878;-78
2021/06/03 10:18:10;;;;;;;5.97;1.60;;;;;;;22.20;34.89;99784.27;1787029;80;21905;-79
2021/06/03 10:20:42;;;;;;;5.33;1.30;;;;;;;22.22;34.98;99782.69;1786673;80;20881;-77
2021/06/03 10:23:18;;;;;;;5.03;1.60;;;;;;;22.34;36.18;99781.58;1786758;80;20930;-78
2021/06/03 10:25:48;;;;;;;4.50;1.57;;;;;;;22.71;35.00;99779.98;1786781;80;20934;-78
2021/06/03 10:28:19;;;;;;;7.47;1.45;;;;;;;23.24;34.47;99782.21;1786982;79;20902;-78
2021/06/03 10:30:49;;;;;;;5.62;1.47;;;;;;;23.39;32.92;99777.66;1786809;80;21955;-79
2021/06/03 10:33:27;;;;;;;8.08;2.00;;;;;;;23.34;32.59;99781.45;1787008;80;20942;-79
2021/06/03 10:36:01;;;;;;;8.90;2.22;;;;;;;23.33;30.71;99792.44;1786924;80;20925;-78
2021/06/03 10:38:28;;;;;;;12.53;2.55;;;;;;;23.53;32.56;99783.92;1785875;80;20989;-78
2021/06/03 10:40:58;;;;;;;7.42;2.10;;;;;;;23.87;33.83;99766.73;1786952;80;21001;-78
2021/06/03 10:43:27;;;;;;;5.80;2.00;;;;;;;24.22;31.58;99758.30;1786905;79;21112;-77
2021/06/03 10:45:54;;;;;;;3.62;1.50;;;;;;;24.54;31.64;99776.48;1786844;80;20901;-76
2021/06/03 10:48:22;;;;;;;9.93;2.37;;;;;;;24.74;31.48;99766.22;1787268;80;20920;-79
2021/06/03 10:50:53;;;;;;;9.45;2.02;;;;;;;24.89;31.54;99764.33;1787118;80;20889;-77
2021/06/03 10:53:23;;;;;;;6.40;1.65;;;;;;;25.01;30.92;99763.91;1787465;80;20975;-75
2021/06/03 10:55:56;;;;;;;2.15;1.60;;;;;;;25.20;32.18;99764.02;1777952;80;21906;-75
2021/06/03 10:58:32;;;;;;;9.98;1.70;;;;;;;25.41;29.97;99765.92;1773884;80;20975;-79
2021/06/03 11:01:09;;;;;;;4.87;1.82;;;;;;;25.48;30.33;99765.84;1758814;81;20955;-77
2021/06/03 11:03:50;;;;;;;5.58;1.47;;;;;;;25.34;28.65;99763.15;1759945;81;20935;-77
2021/06/03 11:06:19;;;;;;;8.40;1.62;;;;;;;24.86;29.25;99774.17;1758412;81;21409;-78
2021/06/03 11:09:05;;;;;;;5.70;1.67;;;;;;;24.11;30.43;99772.94;1758315;81;21357;-78
2021/06/03 11:11:37;;;;;;;3.22;1.50;;;;;;;23.46;31.38;99771.87;1772137;79;20923;-80
2021/06/03 11:14:11;;;;;;;4.85;1.55;;;;;;;22.97;32.08;99783.94;1774094;80;20948;-77
2021/06/03 11:16:44;;;;;;;6.42;1.60;;;;;;;22.63;33.09;99784.73;1792910;80;21407;-77
2021/06/03 11:19:11;;;;;;;;;;;;;;;22.48;34.09;99777.47;1798487;80;20966;-77
2021/06/03 11:21:45;;;;;;;6.85;1.47;;;;;;;22.42;33.38;99776.83;1795818;80;22035;-78
2021/06/03 11:24:32;;;;;;;5.12;1.45;;;;;;;22.33;33.06;99787.77;1795965;80;20973;-79
2021/06/03 11:27:01;;;;;;;1.80;1.20;;;;;;;22.20;33.99;99782.27;1790018;80;21081;-78
2021/06/03 11:29:51;;;;;;;3.40;1.50;;;;;;;22.05;33.81;99780.55;1767993;80;20903;-78
2021/06/03 11:32:23;;;;;;;4.15;1.60;;;;;;;21.88;34.15;99775.61;1796048;80;20926;-74
2021/06/03 11:34:55;;;;;;;5.50;2.17;;;;;;;21.72;35.02;99778.66;1782662;80;20970;-74
2021/06/03 11:37:43;;;;;;;2.67;1.65;;;;;;;21.54;35.15;99781.88;1774205;79;20962;-75
2021/06/03 11:40:16;;;;;;;6.50;1.72;;;;;;;21.42;35.60;99771.78;1763888;81;20939;-75
2021/06/03 11:42:47;;;;;;;10.32;1.85;;;;;;;21.34;35.71;99775.70;1764199;81;20967;-74
2021/06/03 11:45:25;;;;;;;8.18;1.77;;;;;;;21.25;36.08;99785.78;1764370;81;20931;-75